Aviation Digital Data Service (ADDS)

Output produced by TAFs form (2021 UTC 18 July 2018)
found at http://www.aviationweather.gov/adds/tafs/
 
KMKT 181727Z 1818/1918 15006KT P6SM BKN250 
     FM190600 14008KT P6SM BKN070 
     FM191000 12009KT P6SM VCSH OVC060 
     FM191200 13009KT 6SM -RA BKN040 
     PROB30 1912/1915 4SM -TSRA BKN050CB 
     FM191500 17012G20KT P6SM SCT020 OVC040 
     TEMPO 1916/1918 4SM -TSRA OVC015CB
       
KRST 181720Z 1818/1918 13007KT P6SM FEW050 
     FM190800 15010KT P6SM VCSH BKN045 
     FM191430 16013G21KT 6SM SHRA BKN040
       
KMSP 181725Z 1818/1924 14007KT P6SM SCT250 
     FM190900 12006KT P6SM BKN250 
     FM191200 11006KT P6SM VCSH BKN060 
     FM191400 13012KT 6SM -RA OVC020 
     FM191800 15014G20KT 6SM -SHRA OVC020 
     TEMPO 1918/1922 4SM -TSRA OVC015CB 
     FM192200 15012G20KT P6SM SCT020 OVC040 
     PROB30 1922/1924 4SM -TSRA OVC015CB